| time (UTC) | temp F | wind direction | speed knots | gust knots | rain 1hr in | rain 24hr in | rain mn in | humidity % | barometer mb |
| 20260510120934 | 63 | 0 | 0.0 | 0.9 | 0.02 | 0.02 | 0.02 | 97 | 1016.2 |
| 20260510115434 | 63 | 77 | 1.7 | 2.6 | 0.01 | 0.01 | 0.01 | 98 | 1016.3 |
| 20260510113933 | 63 | 10 | 0.9 | 1.7 | 0.00 | 0.00 | 0.00 | 98 | 1015.7 |
| 20260510112434 | 63 | 21 | 2.6 | 2.6 | 0.00 | 0.00 | 0.00 | 98 | 1015.4 |
| 20260510110934 | 63 | 87 | 0.9 | 1.7 | 0.00 | 0.00 | 0.00 | 98 | 1015.4 |
| 20260510105434 | 63 | 98 | 0.9 | 1.7 | 0.00 | 0.00 | 0.00 | 97 | 1015.6 |
| 20260510103933 | 63 | 95 | 0.9 | 1.7 | 0.00 | 0.00 | 0.00 | 97 | 1015.5 |
| 20260510102434 | 63 | 93 | 0.9 | 2.6 | 0.00 | 0.00 | 0.00 | 97 | 1015.7 |
| 20260510100934 | 63 | 43 | 1.7 | 1.7 | 0.00 | 0.00 | 0.00 | 97 | 1015.8 |
| 20260510095434 | 63 | 131 | 0.9 | 2.6 | 0.00 | 0.00 | 0.00 | 97 | 1015.9 |
| 20260510092435 | 63 | 138 | 1.7 | 1.7 | 0.00 | 0.00 | 0.00 | 97 | 1015.9 |
| 20260510090933 | 63 | 50 | 1.7 | 5.2 | 0.00 | 0.00 | 0.00 | 97 | 1015.5 |
| 20260510085434 | 63 | 79 | 0.9 | 1.7 | 0.00 | 0.00 | 0.00 | 96 | 1015.3 |
| 20260510083934 | 63 | 288 | 0.9 | 2.6 | 0.00 | 0.00 | 0.00 | 96 | 1015.0 |
| 20260510082434 | 63 | 43 | 3.5 | 4.3 | 0.00 | 0.00 | 0.00 | 96 | 1014.6 |
| 20260510080934 | 63 | 175 | 0.9 | 1.7 | 0.00 | 0.00 | 0.00 | 96 | 1014.7 |
| 20260510075433 | 64 | 0 | 0.0 | 0.9 | 0.00 | 0.00 | 0.00 | 95 | 1014.4 |
| 20260510073933 | 64 | 52 | 0.9 | 0.9 | 0.00 | 0.00 | 0.00 | 95 | 1014.4 |
| 20260510072434 | 64 | 36 | 0.9 | 0.9 | 0.00 | 0.00 | 0.00 | 95 | 1014.4 |
| 20260510071234 | 64 | 0 | 0.0 | 0.0 | 0.00 | 0.00 | 0.00 | 94 | 1014.4 |
| 20260510065433 | 64 | 56 | 0.9 | 0.9 | 0.00 | 0.00 | 0.00 | 94 | 1014.6 |
| 20260510063932 | 65 | 70 | 0.9 | 0.9 | 0.00 | 0.00 | 0.00 | 93 | 1014.4 |
| 20260510062432 | 65 | 101 | 1.7 | 1.7 | 0.00 | 0.00 | 0.00 | 92 | 1014.9 |
| 20260510060932 | 65 | 43 | 0.9 | 0.9 | 0.00 | 0.00 | 0.00 | 92 | 1014.7 |
| 20260510053932 | 66 | 0 | 0.0 | 0.0 | 0.00 | 0.00 | 0.00 | 90 | 1014.5 |
| 20260510050933 | 67 | 0 | 0.0 | 0.0 | 0.00 | 0.00 | 0.00 | 89 | 1014.2 |
| 20260510040932 | 69 | 0 | 0.0 | 0.0 | 0.00 | 0.00 | 0.00 | 82 | 1013.9 |
| 20260510035432 | 70 | 0 | 0.0 | 0.9 | 0.00 | 0.00 | 0.00 | 80 | 1013.7 |
| 20260510033932 | 71 | 0 | 0.0 | 0.0 | 0.00 | 0.00 | 0.00 | 78 | 1013.7 |
| 20260510032432 | 72 | 0 | 0.0 | 0.9 | 0.00 | 0.00 | 0.00 | 76 | 1013.8 |
| 20260510030932 | 72 | 0 | 0.0 | 0.9 | 0.00 | 0.00 | 0.00 | 74 | 1013.5 |
| 20260510025432 | 73 | 86 | 0.9 | 0.9 | 0.00 | 0.00 | 0.00 | 73 | 1013.2 |
| 20260510023932 | 73 | 98 | 0.9 | 0.9 | 0.00 | 0.00 | 0.00 | 71 | 1012.8 |
| 20260510022432 | 72 | 98 | 0.9 | 1.7 | 0.00 | 0.00 | 0.00 | 72 | 1012.8 |
| 20260510020932 | 72 | 83 | 0.9 | 0.9 | 0.00 | 0.00 | 0.00 | 72 | 1012.7 |
| 20260510015433 | 73 | 0 | 0.0 | 0.0 | 0.00 | 0.00 | 0.00 | 71 | 1012.4 |
| 20260510013932 | 74 | 0 | 0.0 | 0.9 | 0.00 | 0.00 | 0.00 | 68 | 1012.1 |
| 20260510012432 | 75 | 85 | 0.9 | 0.9 | 0.00 | 0.00 | 0.00 | 66 | 1012.0 |
| 20260510010932 | 76 | 0 | 0.0 | 0.0 | 0.00 | 0.00 | 0.00 | 66 | 1012.1 |
| 20260510005433 | 77 | 0 | 0.0 | 0.0 | 0.00 | 0.00 | 0.00 | 62 | 1011.5 |
| 20260510003932 | 78 | 0 | 0.0 | 0.0 | 0.00 | 0.00 | 0.00 | 61 | 1011.3 |
| 20260510002434 | 79 | 0 | 0.0 | 0.9 | 0.00 | 0.00 | 0.00 | 59 | 1011.2 |
| 20260510000932 | 79 | 0 | 0.0 | 0.0 | 0.00 | 0.00 | 0.00 | 59 | 1011.0 |
| 20260509235433 | 79 | 86 | 1.7 | 1.7 | 0.00 | 0.00 | 0.00 | 59 | 1010.9 |
| 20260509233933 | 80 | 86 | 1.7 | 1.7 | 0.00 | 0.00 | 0.00 | 57 | 1010.8 |
| 20260509232432 | 81 | 65 | 0.9 | 2.6 | 0.00 | 0.00 | 0.00 | 56 | 1010.7 |
| 20260509230932 | 82 | 0 | 0.0 | 0.9 | 0.00 | 0.00 | 0.00 | 57 | 1010.4 |
| 20260509225432 | 81 | 114 | 0.9 | 0.9 | 0.00 | 0.00 | 0.00 | 56 | 1010.7 |
| 20260509223933 | 83 | 219 | 0.9 | 1.7 | 0.00 | 0.00 | 0.00 | 50 | 1010.3 |
| 20260509222432 | 83 | 0 | 0.0 | 2.6 | 0.00 | 0.00 | 0.00 | 52 | 1010.1 |
| 20260509215433 | 86 | 226 | 2.6 | 2.6 | 0.00 | 0.00 | 0.00 | 48 | 1010.0 |
| 20260509213932 | 86 | 263 | 1.7 | 1.7 | 0.00 | 0.00 | 0.00 | 48 | 1010.0 |
| 20260509212432 | 86 | 0 | 0.0 | 0.9 | 0.00 | 0.00 | 0.00 | 45 | 1010.1 |
| 20260509210932 | 85 | 228 | 0.9 | 1.7 | 0.00 | 0.00 | 0.00 | 48 | 1010.4 |
| 20260509205432 | 85 | 129 | 0.9 | 1.7 | 0.00 | 0.00 | 0.00 | 47 | 1010.4 |
| 20260509203932 | 84 | 237 | 0.9 | 1.7 | 0.00 | 0.00 | 0.00 | 49 | 1010.6 |
| 20260509202432 | 84 | 0 | 0.0 | 0.9 | 0.00 | 0.00 | 0.00 | 48 | 1010.8 |
| 20260509200932 | 83 | 0 | 0.0 | 0.9 | 0.00 | 0.00 | 0.00 | 49 | 1011.0 |
| 20260509195432 | 82 | 0 | 0.0 | 0.9 | 0.00 | 0.00 | 0.00 | 51 | 1011.4 |
| 20260509193932 | 82 | 244 | 1.7 | 3.5 | 0.00 | 0.00 | 0.00 | 50 | 1011.3 |
| 20260509190933 | 84 | 69 | 0.9 | 1.7 | 0.00 | 0.00 | 0.00 | 49 | 1011.5 |
| 20260509185433 | 82 | 0 | 0.0 | 0.9 | 0.00 | 0.00 | 0.00 | 50 | 1011.5 |
| 20260509183932 | 82 | 123 | 0.9 | 0.9 | 0.00 | 0.00 | 0.00 | 52 | 1011.8 |
| 20260509182432 | 83 | 275 | 0.9 | 0.9 | 0.00 | 0.00 | 0.00 | 49 | 1011.6 |
| 20260509180932 | 83 | 224 | 1.7 | 3.5 | 0.00 | 0.00 | 0.00 | 49 | 1011.8 |
| 20260509175432 | 81 | 0 | 0.0 | 0.9 | 0.00 | 0.00 | 0.00 | 53 | 1011.9 |
| 20260509173932 | 81 | 192 | 0.9 | 1.7 | 0.00 | 0.00 | 0.00 | 51 | 1012.1 |
| 20260509172432 | 81 | 235 | 2.6 | 2.6 | 0.00 | 0.00 | 0.00 | 52 | 1012.3 |
| 20260509170932 | 79 | 89 | 1.7 | 1.7 | 0.00 | 0.00 | 0.00 | 54 | 1012.2 |
| 20260509165432 | 78 | 343 | 2.6 | 5.2 | 0.00 | 0.00 | 0.00 | 57 | 1012.2 |
| 20260509163932 | 77 | 348 | 3.5 | 5.2 | 0.00 | 0.00 | 0.00 | 60 | 1012.3 |
| 20260509162432 | 76 | 353 | 4.3 | 5.2 | 0.00 | 0.00 | 0.00 | 61 | 1012.3 |
| 20260509160932 | 75 | 12 | 2.6 | 2.6 | 0.00 | 0.00 | 0.00 | 63 | 1012.3 |
| 20260509155432 | 74 | 20 | 1.7 | 1.7 | 0.00 | 0.00 | 0.00 | 65 | 1012.2 |
| 20260509153932 | 72 | 43 | 2.6 | 3.5 | 0.00 | 0.00 | 0.00 | 68 | 1012.1 |
| 20260509152432 | 71 | 10 | 2.6 | 3.5 | 0.00 | 0.00 | 0.00 | 71 | 1012.4 |
| 20260509150932 | 70 | 57 | 1.7 | 2.6 | 0.00 | 0.00 | 0.00 | 72 | 1012.5 |
| 20260509145432 | 69 | 6 | 4.3 | 4.3 | 0.00 | 0.00 | 0.00 | 73 | 1012.4 |
| 20260509143932 | 68 | 171 | 1.7 | 2.6 | 0.00 | 0.00 | 0.00 | 77 | 1012.4 |
| 20260509142432 | 66 | 199 | 0.9 | 1.7 | 0.00 | 0.00 | 0.00 | 80 | 1012.5 |
| 20260509140932 | 65 | 165 | 1.7 | 2.6 | 0.00 | 0.00 | 0.00 | 84 | 1013.0 |
| 20260509135432 | 63 | 87 | 1.7 | 1.7 | 0.00 | 0.00 | 0.00 | 86 | 1013.0 |
| 20260509133932 | 62 | 109 | 0.9 | 1.7 | 0.00 | 0.00 | 0.00 | 89 | 1013.2 |
| 20260509132432 | 61 | 199 | 0.9 | 1.7 | 0.00 | 0.00 | 0.00 | 93 | 1012.9 |
| 20260509130932 | 60 | 49 | 0.9 | 1.7 | 0.00 | 0.00 | 0.00 | 97 | 1013.1 |
| 20260509125432 | 59 | 54 | 0.9 | 2.6 | 0.00 | 0.00 | 0.00 | 97 | 1013.1 |
| 20260509122432 | 57 | 83 | 0.9 | 1.7 | 0.00 | 0.00 | 0.00 | 97 | 1012.6 |